tititudorancea.com
Station Historical Data
Daily Summary for November 19, 2018 Units:  Metric    English   Both
« Previous Day
Next Day »
Daily Weekly Monthly Yearly Custom
  High: Low: Average:
Temperature: -17.8 °C 15.2 °C 22.8 °C
Dew Point: -17.8 °C 3.7 °C 6.3 °C
Humidity: Humidity % 20 % 37 %
Wind Speed: 0 km/h 0 km/h 11.6 km/h
Wind Gust: 0 km/h - -
Wind:- - NE
Pressure: 0 hPa 1005.6 hPa -
Precipitation: 0 mm    
Historical Graphs
 
 
Ararat weather Find more about Weather in Ararat, AU


 



 


Tabular Data for November 19, 2018
Time Temperature Dew Point Pressure Wind Wind Speed Wind Gust Humidity Rainfall Rate (Hourly)
-17.8 °C -17.8 °C 0 hPa Calm     Humidity % 0 mm
00:04 16.2 °C 6 °C 1014.4 hPa Calm     51 % 0 mm
00:09 16.1 °C 6.2 °C 1014.4 hPa ENE 5.6 km/h 1.4 km/h 52 % 0 mm
00:14 16.1 °C 6.2 °C 1014.4 hPa ENE 3.7 km/h 2.4 km/h 52 % 0 mm
00:19 16.4 °C 6.2 °C 1014.4 hPa ENE 3.7 km/h 1.3 km/h 51 % 0 mm
00:24 16.6 °C 6.4 °C 1014.4 hPa ENE 3.7 km/h 1.9 km/h 51 % 0 mm
00:29 16.4 °C 6.3 °C 1014.4 hPa Calm     51 % 0 mm
00:34 16.3 °C 6.4 °C 1014.4 hPa Calm     52 % 0 mm
00:39 16.1 °C 6.5 °C 1014.1 hPa ENE 3.7 km/h 2.4 km/h 53 % 0 mm
00:44 16 °C 6.7 °C 1014.1 hPa Calm     54 % 0 mm
00:49 15.9 °C 6.8 °C 1014.1 hPa ENE 1.9 km/h 1.9 km/h 55 % 0 mm
00:54 15.8 °C 6.8 °C 1014.1 hPa Calm     55 % 0 mm
00:59 15.8 °C 7 °C 1014.1 hPa ENE 1.6 km/h 0.2 km/h 56 % 0 mm
01:04 15.6 °C 7.1 °C 1014.1 hPa ENE 3.7 km/h 2.4 km/h 57 % 0 mm
01:09 15.6 °C 7.4 °C 1014.1 hPa ENE 3.7 km/h 2.9 km/h 58 % 0 mm
01:14 15.7 °C 7.5 °C 1013.8 hPa ENE 3.7 km/h 1.8 km/h 58 % 0 mm
01:19 15.7 °C 7.5 °C 1013.8 hPa ENE 1.9 km/h 0.6 km/h 58 % 0 mm
01:24 15.7 °C 7.4 °C 1013.8 hPa ENE 3.7 km/h 2.4 km/h 58 % 0 mm
01:29 15.6 °C 7.6 °C 1013.8 hPa ENE 4.8 km/h 1.9 km/h 59 % 0 mm
01:34 15.6 °C 7.6 °C 1013.8 hPa ENE 3.7 km/h 1.8 km/h 59 % 0 mm
01:39 15.5 °C 7.8 °C 1013.8 hPa ENE 3.7 km/h 2.1 km/h 60 % 0 mm
01:44 15.4 °C 7.7 °C 1013.4 hPa ENE 3.7 km/h 2.9 km/h 60 % 0 mm
01:49 15.4 °C 7.7 °C 1013.4 hPa ENE 5.6 km/h 3.5 km/h 60 % 0 mm
01:54 15.4 °C 7.7 °C 1013.4 hPa NE 3.7 km/h 3.2 km/h 60 % 0 mm
01:59 15.4 °C 7.7 °C 1013.4 hPa ENE 5.6 km/h 4 km/h 60 % 0 mm
02:04 15.4 °C 7.7 °C 1013.4 hPa ENE 3.7 km/h 1.9 km/h 60 % 0 mm
02:09 15.4 °C 7.7 °C 1013.1 hPa ENE 3.7 km/h 2.6 km/h 60 % 0 mm
02:14 15.5 °C 7.8 °C 1013.1 hPa Calm     60 % 0 mm
02:19 15.4 °C 7.7 °C 1013.1 hPa ENE 5.6 km/h 3.9 km/h 60 % 0 mm
02:24 15.3 °C 7.6 °C 1013.1 hPa ENE 5.6 km/h 4.2 km/h 60 % 0 mm
02:29 15.6 °C 7.6 °C 1013.1 hPa ENE 5.6 km/h 2.6 km/h 59 % 0 mm
02:34 15.8 °C 7.6 °C 1012.8 hPa Calm   1 km/h 58 % 0 mm
02:39 15.8 °C 7.6 °C 1012.8 hPa ENE 3.7 km/h 2.4 km/h 58 % 0 mm
02:44 16.1 °C 7.6 °C 1012.8 hPa ENE 1.9 km/h 1 km/h 57 % 0 mm
02:49 16.1 °C 7.6 °C 1012.8 hPa ENE 1.6 km/h   57 % 0 mm
02:54 15.9 °C 7.4 °C 1012.8 hPa ENE 5.6 km/h 4.3 km/h 57 % 0 mm
02:59 16 °C 7.5 °C 1012.8 hPa ENE 5.6 km/h 3.4 km/h 57 % 0 mm
03:04 16.1 °C 7.3 °C 1012.8 hPa ENE 3.7 km/h 2.4 km/h 56 % 0 mm
03:09 16.1 °C 7.3 °C 1012.8 hPa ENE 5.6 km/h 2.6 km/h 56 % 0 mm
03:14 16.1 °C 7.3 °C 1012.8 hPa ENE 1.9 km/h 0.3 km/h 56 % 0 mm
03:19 15.9 °C 7.2 °C 1012.8 hPa Calm     56 % 0 mm
03:24 15.6 °C 7.1 °C 1012.8 hPa NE 5.6 km/h 3.1 km/h 57 % 0 mm
03:29 15.4 °C 7.4 °C 1012.8 hPa ENE 3.7 km/h 2.3 km/h 59 % 0 mm
03:34 15.3 °C 7.3 °C 1012.8 hPa ENE 5.6 km/h 4.2 km/h 59 % 0 mm
03:39 15.2 °C 6.9 °C 1012.8 hPa ENE 3.2 km/h 1.8 km/h 58 % 0 mm
03:44 15.2 °C 7 °C 1012.8 hPa ENE 3.7 km/h 3.2 km/h 58 % 0 mm
03:49 15.2 °C 7 °C 1012.8 hPa ENE 6.4 km/h 5.1 km/h 58 % 0 mm
03:54 15.4 °C 6.9 °C 1012.8 hPa ENE 5.6 km/h 4.3 km/h 57 % 0 mm
03:59 15.6 °C 6.8 °C 1012.8 hPa ENE 5.6 km/h 1.9 km/h 56 % 0 mm
04:04 15.7 °C 6.7 °C 1012.4 hPa Calm     55 % 0 mm
04:09 15.6 °C 6.8 °C 1012.4 hPa ENE 3.7 km/h 1.8 km/h 56 % 0 mm
04:14 15.5 °C 6.8 °C 1012.8 hPa ENE 4.8 km/h 3.1 km/h 56 % 0 mm
04:19 15.7 °C 6.7 °C 1012.8 hPa ENE 5.6 km/h 5.3 km/h 55 % 0 mm
04:24 16.1 °C 6.5 °C 1012.8 hPa ENE 5.6 km/h 3.7 km/h 53 % 0 mm
04:29 16.2 °C 6.3 °C 1012.4 hPa ENE 5.6 km/h 2.6 km/h 52 % 0 mm
04:34 16.4 °C 6.3 °C 1012.4 hPa ENE 5.6 km/h 5.1 km/h 51 % 0 mm
04:39 16.7 °C 6.2 °C 1012.4 hPa ENE 5.6 km/h 5.1 km/h 50 % 0 mm
04:44 16.8 °C 6.3 °C 1012.4 hPa ENE 3.7 km/h   50 % 0 mm
04:49 16.9 °C 6.4 °C 1012.4 hPa Calm     50 % 0 mm
04:54 16.6 °C 6.4 °C 1012.4 hPa ENE 4.8 km/h 3.9 km/h 51 % 0 mm
04:59 16.4 °C 6.2 °C 1012.8 hPa ENE 5.6 km/h 4.3 km/h 51 % 0 mm
05:04 16.5 °C 6.1 °C 1012.4 hPa ENE 3.7 km/h   50 % 0 mm
05:09 16.4 °C 6.5 °C 1012.4 hPa Calm     52 % 0 mm
05:14 16.1 °C 6.2 °C 1012.4 hPa ENE 4.8 km/h 3.1 km/h 52 % 0 mm
05:19 15.8 °C 6.3 °C 1012.4 hPa ENE 3.7 km/h 2.7 km/h 53 % 0 mm
05:24 15.6 °C 6.3 °C 1012.8 hPa ENE 5.6 km/h 4.5 km/h 54 % 0 mm
05:29 15.8 °C 6 °C 1012.8 hPa NE 7.4 km/h 5.5 km/h 52 % 0 mm
05:34 16.2 °C 6.1 °C 1012.4 hPa Calm     51 % 0 mm
05:39 16.2 °C 6.3 °C 1012.8 hPa Calm     52 % 0 mm
05:44 15.8 °C 5.9 °C 1012.8 hPa ENE 9.3 km/h 8.2 km/h 52 % 0 mm
05:49 16.3 °C 6.1 °C 1012.8 hPa NE 11.1 km/h 6.9 km/h 51 % 0 mm
05:54 16.8 °C 6 °C 1012.8 hPa NE 3.7 km/h 1.8 km/h 49 % 0 mm
05:59 16.8 °C 5.7 °C 1012.8 hPa NE 7.4 km/h 4.8 km/h 48 % 0 mm
06:04 16.9 °C 5.8 °C 1013.1 hPa NE 5.6 km/h 5.5 km/h 48 % 0 mm
06:09 17.1 °C 6 °C 1013.1 hPa NE 6.4 km/h 5.6 km/h 48 % 0 mm
06:14 17.2 °C 6.1 °C 1013.1 hPa NE 3.7 km/h 2.7 km/h 48 % 0 mm
06:19 17.2 °C 5.8 °C 1013.1 hPa NE 5.6 km/h 3.5 km/h 47 % 0 mm
06:24 17.3 °C 5.6 °C 1013.1 hPa NE 11.1 km/h 9.2 km/h 46 % 0 mm
06:29 17.6 °C 5.8 °C 1013.4 hPa NE 8 km/h 7.2 km/h 46 % 0 mm
06:34 17.7 °C 5.9 °C 1013.4 hPa NE 5.6 km/h 3.5 km/h 46 % 0 mm
06:39 17.7 °C 5.9 °C 1013.4 hPa NE 3.7 km/h 1.9 km/h 46 % 0 mm
06:44 17.7 °C 6.2 °C 1013.4 hPa NE 5.6 km/h 2.1 km/h 47 % 0 mm
06:49 17.8 °C 6 °C 1013.8 hPa NE 5.6 km/h 3.5 km/h 46 % 0 mm
06:54 18 °C 6.2 °C 1013.4 hPa NE 5.6 km/h 3.2 km/h 46 % 0 mm
06:59 18.3 °C 6.1 °C 1013.8 hPa NE 11.3 km/h 5.1 km/h 45 % 0 mm
07:04 18.7 °C 5.8 °C 1013.8 hPa NE 12.9 km/h 6.9 km/h 43 % 0 mm
07:09 18.9 °C 6.1 °C 1013.8 hPa NE 9.3 km/h 6.3 km/h 43 % 0 mm
07:14 19.2 °C 6 °C 1013.8 hPa NE 11.1 km/h 8 km/h 42 % 0 mm
07:19 19.3 °C 6.1 °C 1013.4 hPa NE 11.1 km/h 6.3 km/h 42 % 0 mm
07:24 19.4 °C 6.1 °C 1013.4 hPa NE 9.3 km/h 3.7 km/h 42 % 0 mm
07:29 19.4 °C 6.1 °C 1013.8 hPa NE 14.8 km/h 6.9 km/h 42 % 0 mm
07:34 19.6 °C 6.3 °C 1013.4 hPa NE 5.6 km/h 3.9 km/h 42 % 0 mm
07:39 19.8 °C 6.8 °C 1013.8 hPa NE 7.4 km/h 2.4 km/h 43 % 0 mm
07:44 19.9 °C 6.3 °C 1013.8 hPa NNE 13 km/h 11.4 km/h 41 % 0 mm
07:49 20.1 °C 6.7 °C 1013.4 hPa NNE 16.1 km/h 10.8 km/h 42 % 0 mm
07:54 20.1 °C 6.8 °C 1013.8 hPa NNE 14.5 km/h 11.4 km/h 42 % 0 mm
07:59 20.2 °C 6.9 °C 1013.8 hPa NNE 16.1 km/h 12.7 km/h 42 % 0 mm
08:04 20.3 °C 6.9 °C 1013.4 hPa NNE 18.5 km/h 7.9 km/h 42 % 0 mm
08:09 20.4 °C 7.4 °C 1013.4 hPa NNE 17.7 km/h 7.4 km/h 43 % 0 mm
08:14 20.4 °C 7.1 °C 1013.8 hPa NNE 27.8 km/h 14.2 km/h 42 % 0 mm
08:19 20.4 °C 7.1 °C 1013.8 hPa NNE 13 km/h 10.3 km/h 42 % 0 mm
08:24 20.4 °C 7.1 °C 1013.4 hPa NNE 11.1 km/h 5.8 km/h 42 % 0 mm
08:29 20.5 °C 7.5 °C 1013.8 hPa NNE 18.5 km/h 7.2 km/h 43 % 0 mm
08:34 20.5 °C 7.5 °C 1013.8 hPa NE 18.5 km/h 8.5 km/h 43 % 0 mm
08:39 20.5 °C 7.5 °C 1013.8 hPa NNE 20.4 km/h 12.7 km/h 43 % 0 mm
08:42 20.4 °C 7.4 °C 1013.8 hPa NNE 18.5 km/h 12.1 km/h 43 % 0 mm
12:59 28.1 °C 8.8 °C 1010.4 hPa NNE 20.4 km/h 17.4 km/h 30 % 0 mm
13:04 27.8 °C 8.7 °C 1010.4 hPa NNE 20.4 km/h 7.6 km/h 30 % 0 mm
13:09 28.3 °C 9.1 °C 1010.4 hPa North 18.5 km/h 11.4 km/h 30 % 0 mm
13:14 28.4 °C 8.7 °C 1010 hPa North 27.8 km/h 17.1 km/h 29 % 0 mm
13:19 28.6 °C 8.8 °C 1010 hPa ENE 13 km/h 8.5 km/h 29 % 0 mm
13:24 28.8 °C 7.9 °C 1010 hPa North 37 km/h 12.1 km/h 27 % 0 mm
13:29 28.7 °C 8.4 °C 1010 hPa NE 33.3 km/h 15.4 km/h 28 % 0 mm
13:34 28.7 °C 9.4 °C 1010 hPa NNE 14.8 km/h 9.2 km/h 30 % 0 mm
13:39 29.2 °C 8.8 °C 1010 hPa NNE 29.6 km/h 14.2 km/h 28 % 0 mm
13:44 28.9 °C 8.6 °C 1009.7 hPa NNE 31.5 km/h 7.6 km/h 28 % 0 mm
13:49 29 °C 6.4 °C 1009.7 hPa NNW 24.1 km/h 14.8 km/h 24 % 0 mm
13:54 28.9 °C 6.3 °C 1009.7 hPa NNE 29.6 km/h 10.1 km/h 24 % 0 mm
13:59 28.8 °C 6.2 °C 1009.7 hPa North 29.6 km/h 16.4 km/h 24 % 0 mm
14:04 29.1 °C 6.4 °C 1009.7 hPa North 13 km/h 10.1 km/h 24 % 0 mm
14:09 29.3 °C 6.6 °C 1009.7 hPa North 18.5 km/h 13 km/h 24 % 0 mm
14:14 29.4 °C 6.1 °C 1009.4 hPa NNE 25.9 km/h 18.2 km/h 23 % 0 mm
14:19 28.9 °C 5.7 °C 1009.4 hPa North 24.1 km/h 9.7 km/h 23 % 0 mm
14:24 28.8 °C 5.6 °C 1009.4 hPa North 24.1 km/h 10.6 km/h 23 % 0 mm
14:29 28.8 °C 6.2 °C 1009 hPa NNE 16.7 km/h 9.3 km/h 24 % 0 mm
14:34 28.9 °C 6.3 °C 1009 hPa North 22.2 km/h 18.2 km/h 24 % 0 mm
14:39 28.9 °C 6.3 °C 1009 hPa NNE 16.7 km/h 11.7 km/h 24 % 0 mm
14:44 28.9 °C 6.3 °C 1009 hPa NNE 31.5 km/h 8.9 km/h 24 % 0 mm
14:49 28.8 °C 6.8 °C 1009 hPa NNE 29.6 km/h 16.3 km/h 25 % 0 mm
14:54 28.9 °C 6.9 °C 1009 hPa ENE 16.1 km/h 12.9 km/h 25 % 0 mm
14:59 28.9 °C 7.4 °C 1008.7 hPa ENE 9.7 km/h 9.3 km/h 26 % 0 mm
15:04 29.1 °C 7.1 °C 1008.7 hPa NNE 20.9 km/h 11.9 km/h 25 % 0 mm
15:09 29.3 °C 5.3 °C 1008.4 hPa North 22.2 km/h 14 km/h 22 % 0 mm
15:14 29.4 °C 6.1 °C 1008.4 hPa NNE 24.1 km/h 12.4 km/h 23 % 0 mm
15:19 29.4 °C 6.1 °C 1008.4 hPa NNE 9.3 km/h 10.9 km/h 23 % 0 mm
15:24 29.6 °C 6.3 °C 1008 hPa NNE 16.7 km/h 14 km/h 23 % 0 mm
15:29 29.8 °C 6.4 °C 1008 hPa NNE 20.4 km/h 11.1 km/h 23 % 0 mm
15:34 29.7 °C 6.3 °C 1007.7 hPa NE 13 km/h 7.2 km/h 23 % 0 mm
15:39 29.6 °C 6.8 °C 1007.7 hPa NNE 14.8 km/h 6.8 km/h 24 % 0 mm
15:44 29.5 °C 6.8 °C 1007.3 hPa NNE 18.5 km/h 12.2 km/h 24 % 0 mm
15:49 29.5 °C 6.8 °C 1007.3 hPa NNE 13 km/h 4.7 km/h 24 % 0 mm
15:54 29.6 °C 6.9 °C 1007.3 hPa NNE 18.5 km/h 7.4 km/h 24 % 0 mm
15:59 29.6 °C 6.2 °C 1007.3 hPa NNE 9.7 km/h 11.1 km/h 23 % 0 mm
16:04 29.4 °C 5.5 °C 1007.3 hPa NE 19.3 km/h 14 km/h 22 % 0 mm
16:09 29.4 °C 6.8 °C 1007.3 hPa NNE 18.5 km/h 3.7 km/h 24 % 0 mm
16:14 29.4 °C 6.1 °C 1007.3 hPa NNE 18.5 km/h 12.2 km/h 23 % 0 mm
16:19 29.4 °C 6.1 °C 1007.3 hPa NNE 25.9 km/h 17.1 km/h 23 % 0 mm
16:24 29.4 °C 6.1 °C 1007 hPa NNE 20.9 km/h 19.6 km/h 23 % 0 mm
16:29 29.5 °C 6.2 °C 1007.3 hPa NNE 33.3 km/h 23.7 km/h 23 % 0 mm
16:34 29.3 °C 6.6 °C 1007 hPa North 20.4 km/h 12.9 km/h 24 % 0 mm
16:39 29.4 °C 6.8 °C 1007 hPa North 16.1 km/h 10.6 km/h 24 % 0 mm
16:44 29.5 °C 6.2 °C 1007 hPa NNE 18.5 km/h 15 km/h 23 % 0 mm
16:49 29.4 °C 6.8 °C 1007 hPa NNE 18.5 km/h 9.8 km/h 24 % 0 mm
16:54 29.7 °C 6.3 °C 1006.7 hPa NE 24.1 km/h 14.8 km/h 23 % 0 mm
16:59 29.9 °C 5.9 °C 1006.7 hPa NE 29.6 km/h 11.6 km/h 22 % 0 mm
17:04 29.9 °C 5.9 °C 1006.7 hPa North 16.7 km/h 9.3 km/h 22 % 0 mm
17:09 29.8 °C 5.8 °C 1006.7 hPa North 20.4 km/h 17.4 km/h 22 % 0 mm
17:14 29.7 °C 6.3 °C 1006.7 hPa NNE 16.7 km/h 15.4 km/h 23 % 0 mm
17:19 29.6 °C 6.3 °C 1006.7 hPa North 24.1 km/h 16.4 km/h 23 % 0 mm
17:24 29.4 °C 6.1 °C 1006.7 hPa North 20.4 km/h 12.4 km/h 23 % 0 mm
17:29 29.4 °C 6.1 °C 1006.7 hPa NNE 24.1 km/h 13 km/h 23 % 0 mm
17:34 29.4 °C 6.7 °C 1006.7 hPa North 9.7 km/h 5.8 km/h 24 % 0 mm
17:39 29.5 °C 6.8 °C 1006.7 hPa NNE 9.7 km/h 8.5 km/h 24 % 0 mm
17:44 29.3 °C 6.1 °C 1006.7 hPa NNE 31.5 km/h 15.6 km/h 23 % 0 mm
17:49 29.3 °C 6.6 °C 1006.3 hPa NNE 9.7 km/h 6 km/h 24 % 0 mm
17:54 29.3 °C 6.6 °C 1006.3 hPa NE 18.5 km/h 7.9 km/h 24 % 0 mm
17:59 29.3 °C 6.6 °C 1006.7 hPa NE 18.5 km/h 13.7 km/h 24 % 0 mm
18:04 29.3 °C 6.7 °C 1006.3 hPa NNE 18.5 km/h 12.6 km/h 24 % 0 mm
18:09 29.3 °C 6.7 °C 1006.3 hPa NNE 22.2 km/h 13.5 km/h 24 % 0 mm
18:14 29.3 °C 6.7 °C 1006.3 hPa NNE 12.9 km/h 7.2 km/h 24 % 0 mm
18:19 29.4 °C 6.1 °C 1006.3 hPa NNE 17.7 km/h 9.7 km/h 23 % 0 mm
18:24 29.3 °C 6.1 °C 1006.3 hPa NNE 22.2 km/h 7.1 km/h 23 % 0 mm
18:29 29.3 °C 6 °C 1006.3 hPa NE 17.7 km/h 11.1 km/h 23 % 0 mm
18:34 29.1 °C 5.8 °C 1006.3 hPa NNE 20.4 km/h 10.5 km/h 23 % 0 mm
18:39 28.9 °C 6.3 °C 1006.3 hPa NE 20.4 km/h 6.9 km/h 24 % 0 mm
18:44 28.8 °C 6.2 °C 1006.3 hPa NE 11.1 km/h 3.5 km/h 24 % 0 mm
18:49 28.8 °C 5.6 °C 1006.3 hPa ENE 20.9 km/h 10.1 km/h 23 % 0 mm
18:54 28.8 °C 4.9 °C 1006.3 hPa NNE 18.5 km/h 14.3 km/h 22 % 0 mm
18:59 28.9 °C 4.4 °C 1006.3 hPa NNE 20.4 km/h 11.1 km/h 21 % 0 mm
19:04 28.9 °C 3.7 °C 1006.3 hPa NNE 14.8 km/h 9 km/h 20 % 0 mm
19:09 28.9 °C 4.4 °C 1006.3 hPa NNE 24.1 km/h 8.4 km/h 21 % 0 mm
19:14 28.8 °C 4.3 °C 1006.3 hPa NNE 18.5 km/h 11.1 km/h 21 % 0 mm
19:19 28.8 °C 4.3 °C 1006.3 hPa NE 16.7 km/h 8.4 km/h 21 % 0 mm
19:24 28.7 °C 4.8 °C 1006 hPa NNE 13 km/h 9.3 km/h 22 % 0 mm
19:29 28.6 °C 4.8 °C 1006 hPa NNE 9.3 km/h 3.4 km/h 22 % 0 mm
19:34 28.5 °C 4.7 °C 1006.3 hPa NNE 13 km/h 8.9 km/h 22 % 0 mm
19:39 28.4 °C 4.6 °C 1006.3 hPa NNE 13 km/h 8.2 km/h 22 % 0 mm
19:44 28.3 °C 5.2 °C 1006 hPa NNE 11.3 km/h 5.6 km/h 23 % 0 mm
19:49 28.2 °C 5.1 °C 1006 hPa NNE 13 km/h 7.2 km/h 23 % 0 mm
19:54 28.1 °C 5 °C 1006 hPa NNE 11.1 km/h 6.3 km/h 23 % 0 mm
19:59 28 °C 4.9 °C 1006 hPa NNE 13 km/h 8.4 km/h 23 % 0 mm
20:04 27.9 °C 4.9 °C 1006 hPa NNE 18.5 km/h 8.5 km/h 23 % 0 mm
20:09 27.9 °C 4.9 °C 1006 hPa NE 14.8 km/h 10 km/h 23 % 0 mm
20:14 27.9 °C 4.8 °C 1006 hPa NNE 14.8 km/h 9.2 km/h 23 % 0 mm
20:19 27.8 °C 4.7 °C 1006.3 hPa NNE 14.8 km/h 7.4 km/h 23 % 0 mm
20:24 27.7 °C 4.7 °C 1006.3 hPa NNE 14.8 km/h 6.6 km/h 23 % 0 mm
20:29 27.6 °C 5.2 °C 1006.3 hPa NNE 5.6 km/h 3.7 km/h 24 % 0 mm
20:34 27.4 °C 5 °C 1006.3 hPa NNE 7.4 km/h 3.1 km/h 24 % 0 mm
20:39 27.2 °C 5.4 °C 1006 hPa NNE 11.1 km/h 5.8 km/h 25 % 0 mm
20:44 27 °C 5.3 °C 1006 hPa NNE 5.6 km/h 4.3 km/h 25 % 0 mm
20:49 26.8 °C 5.2 °C 1006 hPa NNE 7.4 km/h 4.3 km/h 25 % 0 mm
20:54 26.7 °C 5.6 °C 1006 hPa NNE 5.6 km/h 2.7 km/h 26 % 0 mm
20:59 26.6 °C 5.5 °C 1006 hPa NNE 9.3 km/h 2.7 km/h 26 % 0 mm
21:04 26.4 °C 5.4 °C 1006 hPa NNE 7.4 km/h 6.3 km/h 26 % 0 mm
21:09 26.4 °C 5.3 °C 1006 hPa NNE 8 km/h 5.6 km/h 26 % 0 mm
21:14 26.3 °C 5.2 °C 1006 hPa NNE 8 km/h 4.2 km/h 26 % 0 mm
21:19 26.3 °C 5.2 °C 1006 hPa NNE 5.6 km/h 4.3 km/h 26 % 0 mm
21:24 26.2 °C 5.2 °C 1006 hPa NNE 9.3 km/h 2.9 km/h 26 % 0 mm
21:29 26.1 °C 5.7 °C 1006 hPa NNE 7.4 km/h 3.9 km/h 27 % 0 mm
21:34 26 °C 5.6 °C 1006 hPa NNE 7.4 km/h 5.1 km/h 27 % 0 mm
21:39 25.8 °C 5.4 °C 1006 hPa NNE 5.6 km/h 2.6 km/h 27 % 0 mm
21:44 25.7 °C 5.8 °C 1006 hPa NNE 5.6 km/h 3.1 km/h 28 % 0 mm
21:49 25.5 °C 5.7 °C 1006 hPa NNE 5.6 km/h 3.1 km/h 28 % 0 mm
21:54 25.3 °C 5.5 °C 1006 hPa NNE 9.3 km/h 3.7 km/h 28 % 0 mm
21:59 25.2 °C 5.3 °C 1006 hPa NNE 5.6 km/h 7.7 km/h 28 % 0 mm
22:04 25.1 °C 5.3 °C 1006 hPa NNE 9.3 km/h 6.6 km/h 28 % 0 mm
22:09 25.1 °C 5.3 °C 1006 hPa NNE 12.9 km/h 7.7 km/h 28 % 0 mm
22:14 25 °C 5.2 °C 1006 hPa NNE 13 km/h 7.1 km/h 28 % 0 mm
22:19 25 °C 5.2 °C 1006 hPa NNE 9.3 km/h 6.9 km/h 28 % 0 mm
22:24 24.9 °C 5.7 °C 1006 hPa NNE 7.4 km/h 5.6 km/h 29 % 0 mm
22:29 24.9 °C 5.7 °C 1006 hPa NE 7.4 km/h 8.4 km/h 29 % 0 mm
22:34 24.9 °C 5.7 °C 1006 hPa NNE 13 km/h 8.5 km/h 29 % 0 mm
22:39 24.9 °C 5.6 °C 1006 hPa NNE 13 km/h 9.3 km/h 29 % 0 mm
22:44 24.8 °C 5.6 °C 1006 hPa NNE 14.8 km/h 9.3 km/h 29 % 0 mm
22:49 24.7 °C 5.9 °C 1006 hPa NNE 18.5 km/h 11.7 km/h 30 % 0 mm
22:54 24.7 °C 5.9 °C 1006 hPa NNE 14.8 km/h 11.6 km/h 30 % 0 mm
22:59 24.7 °C 5.9 °C 1005.6 hPa NE 13 km/h 6.6 km/h 30 % 0 mm
23:04 24.6 °C 5.9 °C 1005.6 hPa NNE 7.4 km/h 3.1 km/h 30 % 0 mm
23:09 24.5 °C 6.3 °C 1005.6 hPa NNE 11.1 km/h 6 km/h 31 % 0 mm
23:14 24.3 °C 6.1 °C 1005.6 hPa NNE 9.3 km/h 5.8 km/h 31 % 0 mm
23:19 24.3 °C 6.1 °C 1005.6 hPa NNE 12.9 km/h 5.3 km/h 31 % 0 mm
23:24 24.3 °C 6.5 °C 1005.6 hPa NNE 13 km/h 6.8 km/h 32 % 0 mm
23:29 24.2 °C 6.5 °C 1005.6 hPa NNE 9.3 km/h 4.8 km/h 32 % 0 mm
23:34 24.2 °C 6.9 °C 1005.6 hPa NNE 7.4 km/h 5.3 km/h 33 % 0 mm
23:39 24.1 °C 6.8 °C 1005.6 hPa NNE 11.1 km/h 6.1 km/h 33 % 0 mm
23:44 24.1 °C 6.8 °C 1005.6 hPa NNE 7.4 km/h 5.3 km/h 33 % 0 mm
23:49 24 °C 7.2 °C 1005.6 hPa NNE 7.4 km/h 5.3 km/h 34 % 0 mm
23:54 23.9 °C 7.1 °C 1005.6 hPa NNE 9.3 km/h 5.3 km/h 34 % 0 mm
23:59 23.8 °C 6.9 °C 1005.6 hPa NNE 6.4 km/h 4.7 km/h 34 % 0 mm
Ararat Weather
Compliments of Weather Underground - 2 mb
Click here to send mail.


ABOUT

Live weather data from Ararat, Victoria, Australia, 3377
Data uploaded from Cumulus every 5 minutes to Weather Underground.
This site then downloads the raw data for formatting and display.
Metric and imperial data can be displayed. Graphs and historical data available.
Includes Sun and Moon times and rain image live from BOM.

Check out Ararat Weather on Facebook, Twitter and Google +

Help support ongoing costs by checking out the ads





Follow @AraratWeather